createdAt,value
2024-02-29T00:00:59.891Z,18.31
2024-02-29T00:01:59.953Z,18.31
2024-02-29T00:02:59.900Z,18.31
2024-02-29T00:03:59.988Z,18.31
2024-02-29T00:05:00.006Z,18.31
2024-02-29T00:06:00.080Z,18.30
2024-02-29T00:07:00.177Z,18.30
2024-02-29T00:08:00.165Z,18.30
2024-02-29T00:09:00.235Z,18.30
2024-02-29T00:10:00.332Z,18.29
2024-02-29T00:11:00.364Z,18.29
2024-02-29T00:12:00.429Z,18.30
2024-02-29T00:13:00.477Z,18.29
2024-02-29T00:14:00.488Z,18.29
2024-02-29T00:15:00.543Z,18.29
2024-02-29T00:16:00.574Z,18.29
2024-02-29T00:17:00.685Z,18.29
2024-02-29T00:18:00.738Z,18.28
2024-02-29T00:19:00.747Z,18.29
2024-02-29T00:20:00.800Z,18.28
2024-02-29T00:21:00.828Z,18.28
2024-02-29T00:22:00.891Z,18.28
2024-02-29T00:23:00.939Z,18.28
2024-02-29T00:24:00.991Z,18.28
2024-02-29T00:25:01.127Z,18.27
2024-02-29T00:26:01.069Z,18.28
2024-02-29T00:27:01.157Z,18.27
2024-02-29T00:28:01.259Z,18.28
2024-02-29T00:29:01.242Z,18.26
2024-02-29T00:30:01.284Z,18.26
2024-02-29T00:31:01.378Z,18.27
2024-02-29T00:32:01.399Z,18.26
2024-02-29T00:33:01.477Z,18.26
2024-02-29T00:34:01.512Z,18.26
2024-02-29T00:35:01.538Z,18.26
2024-02-29T00:36:09.233Z,18.25
2024-02-29T00:37:02.622Z,18.25
2024-02-29T00:38:01.601Z,18.26
2024-02-29T00:39:06.426Z,18.25
2024-02-29T00:40:02.643Z,18.25
2024-02-29T00:41:01.609Z,18.25
2024-02-29T00:42:01.601Z,18.25
2024-02-29T00:43:01.662Z,18.24
2024-02-29T00:44:01.639Z,18.25
2024-02-29T00:45:01.638Z,18.25
2024-02-29T00:46:01.674Z,18.24
2024-02-29T00:47:01.625Z,18.24
2024-02-29T00:48:01.663Z,18.24
2024-02-29T00:49:01.684Z,18.24
2024-02-29T00:50:01.641Z,18.24
2024-02-29T00:51:01.702Z,18.23
2024-02-29T00:52:01.732Z,18.24
2024-02-29T00:53:01.791Z,18.24
2024-02-29T00:54:01.938Z,18.23
2024-02-29T00:55:01.936Z,18.23
2024-02-29T00:56:01.960Z,18.23
2024-02-29T00:57:02.091Z,18.23
2024-02-29T00:58:02.123Z,18.23
2024-02-29T00:59:02.144Z,18.23
2024-02-29T01:00:02.177Z,18.23
2024-02-29T01:01:02.373Z,18.22
2024-02-29T01:02:02.923Z,18.23
2024-02-29T01:03:02.378Z,18.22
2024-02-29T01:04:02.503Z,18.22
2024-02-29T01:05:02.477Z,18.22
2024-02-29T01:06:02.558Z,18.21
2024-02-29T01:07:02.709Z,18.21
2024-02-29T01:08:02.674Z,18.22
2024-02-29T01:09:02.719Z,18.21
2024-02-29T01:10:02.864Z,18.22
2024-02-29T01:11:02.887Z,18.21
2024-02-29T01:12:02.922Z,18.20
2024-02-29T01:13:03.007Z,18.20
2024-02-29T01:14:13.097Z,18.20
2024-02-29T01:15:03.031Z,18.19
2024-02-29T01:16:03.202Z,18.20
2024-02-29T01:17:03.031Z,18.20
2024-02-29T01:18:03.064Z,18.20
2024-02-29T01:19:03.087Z,18.20
2024-02-29T01:20:03.047Z,18.20
2024-02-29T01:21:03.040Z,18.19
2024-02-29T01:22:03.071Z,18.20
2024-02-29T01:23:03.051Z,18.20
2024-02-29T01:24:03.064Z,18.19
2024-02-29T01:25:03.127Z,18.19
2024-02-29T01:26:03.059Z,18.19
2024-02-29T01:27:03.063Z,18.19
2024-02-29T01:28:03.140Z,18.19
2024-02-29T01:29:03.062Z,18.19
2024-02-29T01:30:03.074Z,18.19
2024-02-29T01:31:03.237Z,18.18
2024-02-29T01:32:12.087Z,18.18
2024-02-29T01:33:04.101Z,18.18
2024-02-29T01:34:03.130Z,18.17
2024-02-29T01:35:03.074Z,18.17
2024-02-29T01:36:03.059Z,18.17
2024-02-29T01:37:03.103Z,18.18
2024-02-29T01:38:03.081Z,18.18
2024-02-29T01:39:03.093Z,18.17
2024-02-29T01:40:03.206Z,18.18
2024-02-29T01:41:03.069Z,18.17
2024-02-29T01:42:03.085Z,18.17
2024-02-29T01:43:03.190Z,18.17
2024-02-29T01:44:03.231Z,18.16
2024-02-29T01:45:03.284Z,18.16
2024-02-29T01:46:03.360Z,18.16
2024-02-29T01:47:03.402Z,18.16
2024-02-29T01:48:03.515Z,18.16
2024-02-29T01:49:03.554Z,18.16
2024-02-29T01:50:03.818Z,18.15
2024-02-29T01:51:03.672Z,18.16
2024-02-29T01:52:03.781Z,18.15
2024-02-29T01:53:03.811Z,18.15
2024-02-29T01:54:03.886Z,18.15
2024-02-29T01:55:04.099Z,18.15
2024-02-29T01:56:04.025Z,18.15
2024-02-29T01:57:04.088Z,18.15
2024-02-29T01:58:04.260Z,18.15
2024-02-29T01:59:04.272Z,18.15
2024-02-29T02:00:04.342Z,18.14
2024-02-29T02:01:04.433Z,18.14
2024-02-29T02:02:04.428Z,18.15
2024-02-29T02:03:04.472Z,18.14
2024-02-29T02:04:06.394Z,18.14
2024-02-29T02:05:04.617Z,18.14
2024-02-29T02:06:04.664Z,18.13
2024-02-29T02:07:04.759Z,18.14
2024-02-29T02:08:04.815Z,18.14
2024-02-29T02:09:04.888Z,18.13
2024-02-29T02:10:04.995Z,18.13
2024-02-29T02:11:05.042Z,18.13
2024-02-29T02:12:05.073Z,18.13
2024-02-29T02:13:05.216Z,18.13
2024-02-29T02:14:05.221Z,18.13
2024-02-29T02:15:05.265Z,18.12
2024-02-29T02:16:05.390Z,18.13
2024-02-29T02:17:05.413Z,18.12
2024-02-29T02:18:05.523Z,18.12
2024-02-29T02:19:05.615Z,18.12
2024-02-29T02:20:05.639Z,18.11
2024-02-29T02:21:05.695Z,18.11
2024-02-29T02:22:05.984Z,18.11
2024-02-29T02:23:05.828Z,18.11
2024-02-29T02:24:06.359Z,18.11
2024-02-29T02:25:06.038Z,18.11
2024-02-29T02:26:06.058Z,18.10
2024-02-29T02:27:06.126Z,18.11
2024-02-29T02:28:06.289Z,18.11
2024-02-29T02:29:06.404Z,18.10
2024-02-29T02:30:06.346Z,18.10
2024-02-29T02:31:06.430Z,18.10
2024-02-29T02:32:06.471Z,18.10
2024-02-29T02:33:06.608Z,18.10
2024-02-29T02:34:12.304Z,18.10
2024-02-29T02:35:06.608Z,18.08
2024-02-29T02:36:06.639Z,18.09
2024-02-29T02:37:06.744Z,18.09
2024-02-29T02:38:06.623Z,18.09
2024-02-29T02:39:27.630Z,18.09
2024-02-29T02:40:06.754Z,18.06
2024-02-29T02:41:06.620Z,18.07
2024-02-29T02:42:06.638Z,18.08
2024-02-29T02:43:06.684Z,18.08
2024-02-29T02:44:28.866Z,18.07
2024-02-29T02:45:06.624Z,18.05
2024-02-29T02:46:06.733Z,18.06
2024-02-29T02:47:06.643Z,18.07
2024-02-29T02:48:06.702Z,18.07
2024-02-29T02:49:06.802Z,18.07
2024-02-29T02:50:06.746Z,18.07
2024-02-29T02:51:06.659Z,18.07
2024-02-29T02:52:06.722Z,18.07
2024-02-29T02:53:06.654Z,18.07
2024-02-29T02:54:06.666Z,18.07
2024-02-29T02:55:06.808Z,18.07
2024-02-29T02:56:06.666Z,18.07
2024-02-29T02:57:06.669Z,18.07
2024-02-29T02:58:06.722Z,18.07
2024-02-29T02:59:06.679Z,18.07
2024-02-29T03:00:06.688Z,18.07
2024-02-29T03:01:06.723Z,18.08
2024-02-29T03:02:06.746Z,18.08
2024-02-29T03:03:06.683Z,18.08
2024-02-29T03:04:06.781Z,18.10
2024-02-29T03:05:06.769Z,18.11
2024-02-29T03:06:06.835Z,18.12
2024-02-29T03:07:06.955Z,18.14
2024-02-29T03:08:07.039Z,18.15
2024-02-29T03:09:07.013Z,18.17
2024-02-29T03:10:07.137Z,18.19
2024-02-29T03:11:07.236Z,18.21
2024-02-29T03:12:07.222Z,18.22
2024-02-29T03:13:07.362Z,18.25
2024-02-29T03:14:12.182Z,18.26
2024-02-29T03:15:07.300Z,18.28
2024-02-29T03:16:07.370Z,18.30
2024-02-29T03:17:07.305Z,18.33
2024-02-29T03:18:07.386Z,18.36
2024-02-29T03:19:07.351Z,18.38
2024-02-29T03:20:07.367Z,18.41
2024-02-29T03:21:07.401Z,18.42
2024-02-29T03:22:07.465Z,18.45
2024-02-29T03:23:07.382Z,18.48
2024-02-29T03:24:07.336Z,18.51
2024-02-29T03:25:07.366Z,18.53
2024-02-29T03:26:07.346Z,18.55
2024-02-29T03:27:07.348Z,18.58
2024-02-29T03:28:07.472Z,18.60
2024-02-29T03:29:07.321Z,18.63
2024-02-29T03:30:07.348Z,18.66
2024-02-29T03:31:07.381Z,18.68
2024-02-29T03:32:07.346Z,18.70
2024-02-29T03:33:07.384Z,18.72
2024-02-29T03:34:07.441Z,18.74
2024-02-29T03:35:07.365Z,18.76
2024-02-29T03:36:07.395Z,18.78
2024-02-29T03:37:07.445Z,18.81
2024-02-29T03:38:07.406Z,18.83
2024-02-29T03:39:07.397Z,18.85
2024-02-29T03:40:07.496Z,18.86
2024-02-29T03:41:07.412Z,18.88
2024-02-29T03:42:07.415Z,18.91
2024-02-29T03:43:07.478Z,18.93
2024-02-29T03:44:07.466Z,18.93
2024-02-29T03:45:07.435Z,18.95
2024-02-29T03:46:07.520Z,18.96
2024-02-29T03:47:07.439Z,18.98
2024-02-29T03:48:07.533Z,19.00
2024-02-29T03:49:07.521Z,19.01
2024-02-29T03:50:07.528Z,19.01
2024-02-29T03:51:07.543Z,19.02
2024-02-29T03:52:07.581Z,19.03
2024-02-29T03:53:07.614Z,19.04
2024-02-29T03:54:07.636Z,19.06
2024-02-29T03:55:07.732Z,19.07
2024-02-29T03:56:07.757Z,19.07
2024-02-29T03:57:07.780Z,19.08
2024-02-29T03:58:07.961Z,19.10
2024-02-29T03:59:07.930Z,19.10
2024-02-29T04:00:08.099Z,19.10
2024-02-29T04:01:08.313Z,19.12
2024-02-29T04:02:08.114Z,19.13
2024-02-29T04:03:08.195Z,19.14
2024-02-29T04:04:08.318Z,19.14
2024-02-29T04:05:08.332Z,19.15
2024-02-29T04:06:08.414Z,19.15
2024-02-29T04:07:08.662Z,19.16
2024-02-29T04:08:08.547Z,19.17
2024-02-29T04:09:13.682Z,19.18
2024-02-29T04:10:08.670Z,19.18
2024-02-29T04:11:08.692Z,19.19
2024-02-29T04:12:08.637Z,19.19
2024-02-29T04:13:08.752Z,19.21
2024-02-29T04:14:08.641Z,19.22
2024-02-29T04:15:08.633Z,19.23
2024-02-29T04:16:08.714Z,19.23
2024-02-29T04:17:08.803Z,19.23
2024-02-29T04:18:08.892Z,19.24
2024-02-29T04:19:08.996Z,19.24
2024-02-29T04:20:08.978Z,19.24
2024-02-29T04:21:09.039Z,19.24
2024-02-29T04:22:09.134Z,19.26
2024-02-29T04:23:09.167Z,19.26
2024-02-29T04:24:09.225Z,19.26
2024-02-29T04:25:09.314Z,19.27
2024-02-29T04:26:09.344Z,19.27
2024-02-29T04:27:09.434Z,19.29
2024-02-29T04:28:09.532Z,19.30
2024-02-29T04:29:09.542Z,19.30
2024-02-29T04:30:09.609Z,19.31
2024-02-29T04:31:09.734Z,19.31
2024-02-29T04:32:09.720Z,19.32
2024-02-29T04:33:09.786Z,19.32
2024-02-29T04:34:09.888Z,19.32
2024-02-29T04:35:09.968Z,19.33
2024-02-29T04:36:09.956Z,19.34
2024-02-29T04:37:10.112Z,19.35
2024-02-29T04:38:10.026Z,19.34
2024-02-29T04:39:10.089Z,19.36
2024-02-29T04:40:11.517Z,19.36
2024-02-29T04:41:10.206Z,19.36
2024-02-29T04:42:10.243Z,19.36
2024-02-29T04:43:10.338Z,19.36
2024-02-29T04:44:10.350Z,19.36
2024-02-29T04:45:10.435Z,19.37
2024-02-29T04:46:10.533Z,19.37
2024-02-29T04:47:17.856Z,19.36
2024-02-29T04:48:17.873Z,19.38
2024-02-29T04:49:17.910Z,19.39
2024-02-29T04:50:17.849Z,19.39
2024-02-29T04:51:17.859Z,19.40
2024-02-29T04:52:17.866Z,19.40
2024-02-29T04:53:17.864Z,19.40
2024-02-29T04:54:38.888Z,19.41
2024-02-29T04:55:17.917Z,19.39
2024-02-29T04:56:17.873Z,19.41
2024-02-29T04:57:17.868Z,19.42
2024-02-29T04:58:17.936Z,19.44
2024-02-29T04:59:21.700Z,19.45
2024-02-29T05:00:17.929Z,19.45
2024-02-29T05:01:18.003Z,19.46
2024-02-29T05:02:17.987Z,19.46
2024-02-29T05:03:18.468Z,19.47
2024-02-29T05:04:17.908Z,19.49
2024-02-29T05:05:21.728Z,19.49
2024-02-29T05:06:17.887Z,19.50
2024-02-29T05:07:17.967Z,19.50
2024-02-29T05:08:17.901Z,19.51
2024-02-29T05:09:17.885Z,19.52
2024-02-29T05:10:18.003Z,19.52
2024-02-29T05:11:17.918Z,19.54
2024-02-29T05:12:17.894Z,19.54
2024-02-29T05:13:17.908Z,19.56
2024-02-29T05:14:17.882Z,19.56
2024-02-29T05:15:17.905Z,19.56
2024-02-29T05:16:17.939Z,19.57
2024-02-29T05:17:17.902Z,19.58
2024-02-29T05:18:17.968Z,19.58
2024-02-29T05:19:17.985Z,19.58
2024-02-29T05:20:17.936Z,19.59
2024-02-29T05:21:17.901Z,19.59
2024-02-29T05:22:17.932Z,19.60
2024-02-29T05:23:17.906Z,19.60
2024-02-29T05:24:17.909Z,19.61
2024-02-29T05:25:18.074Z,19.62
2024-02-29T05:26:17.908Z,19.61
2024-02-29T05:27:17.903Z,19.62
2024-02-29T05:28:17.975Z,19.62
2024-02-29T05:29:17.955Z,19.63
2024-02-29T05:30:17.921Z,19.62
2024-02-29T05:31:17.973Z,19.63
2024-02-29T05:32:19.070Z,19.62
2024-02-29T05:33:18.042Z,19.62
2024-02-29T05:34:18.088Z,19.62
2024-02-29T05:35:17.949Z,19.62
2024-02-29T05:36:17.950Z,19.62
2024-02-29T05:37:18.025Z,19.61
2024-02-29T05:38:17.938Z,19.62
2024-02-29T05:39:17.948Z,19.62
2024-02-29T05:40:18.019Z,19.61
2024-02-29T05:41:17.965Z,19.61
2024-02-29T05:42:17.943Z,19.61
2024-02-29T05:43:17.977Z,19.61
2024-02-29T05:44:17.942Z,19.61
2024-02-29T05:45:17.958Z,19.60
2024-02-29T05:46:18.035Z,19.61
2024-02-29T05:47:17.953Z,19.61
2024-02-29T05:48:17.959Z,19.60
2024-02-29T05:49:18.026Z,19.60
2024-02-29T05:50:17.969Z,19.61
2024-02-29T05:51:17.952Z,19.60
2024-02-29T05:52:17.994Z,19.60
2024-02-29T05:53:17.961Z,19.60
2024-02-29T05:54:17.987Z,19.60
2024-02-29T05:55:18.165Z,19.61
2024-02-29T05:56:18.081Z,19.61
2024-02-29T05:57:18.112Z,19.60
2024-02-29T05:58:18.167Z,19.60
2024-02-29T05:59:18.146Z,19.60
2024-02-29T06:00:18.161Z,19.61
2024-02-29T06:01:18.257Z,19.60
2024-02-29T06:02:18.257Z,19.61
2024-02-29T06:03:18.277Z,19.61
2024-02-29T06:04:18.452Z,19.62
2024-02-29T06:05:18.348Z,19.62
2024-02-29T06:06:18.368Z,19.61
2024-02-29T06:07:18.443Z,19.63
2024-02-29T06:08:18.445Z,19.62
2024-02-29T06:09:18.478Z,19.62
2024-02-29T06:10:18.579Z,19.64
2024-02-29T06:11:18.561Z,19.64
2024-02-29T06:12:18.563Z,19.64
2024-02-29T06:13:18.687Z,19.65
2024-02-29T06:14:18.644Z,19.65
2024-02-29T06:15:18.637Z,19.66
2024-02-29T06:16:18.684Z,19.66
2024-02-29T06:17:18.712Z,19.67
2024-02-29T06:18:18.751Z,19.67
2024-02-29T06:19:18.873Z,19.68
2024-02-29T06:20:18.777Z,19.68
2024-02-29T06:21:18.777Z,19.69
2024-02-29T06:22:18.839Z,19.70
2024-02-29T06:23:18.816Z,19.70
2024-02-29T06:24:18.822Z,19.71
2024-02-29T06:25:19.281Z,19.72
2024-02-29T06:26:18.901Z,19.72
2024-02-29T06:27:18.886Z,19.72
2024-02-29T06:28:22.925Z,19.73
2024-02-29T06:29:20.005Z,19.73
2024-02-29T06:30:18.930Z,19.74
2024-02-29T06:31:19.106Z,19.75
2024-02-29T06:32:18.934Z,19.74
2024-02-29T06:33:18.954Z,19.70
2024-02-29T06:34:18.985Z,19.57
2024-02-29T06:35:18.952Z,19.45
2024-02-29T06:36:18.924Z,19.31
2024-02-29T06:37:18.970Z,19.19
2024-02-29T06:38:18.921Z,18.98
2024-02-29T06:39:18.925Z,18.75
2024-02-29T06:40:19.022Z,18.56
2024-02-29T06:41:18.944Z,18.37
2024-02-29T06:42:18.948Z,18.22
2024-02-29T06:43:19.218Z,18.09
2024-02-29T06:44:18.946Z,17.99
2024-02-29T06:45:18.982Z,17.90
2024-02-29T06:46:19.065Z,17.84
2024-02-29T06:47:19.004Z,17.76
2024-02-29T06:48:19.077Z,17.68
2024-02-29T06:49:19.128Z,17.54
2024-02-29T06:50:19.164Z,17.34
2024-02-29T06:51:19.168Z,17.11
2024-02-29T06:52:19.353Z,16.89
2024-02-29T06:53:19.222Z,16.65
2024-02-29T06:54:19.297Z,16.48
2024-02-29T06:55:19.454Z,16.33
2024-02-29T06:56:19.414Z,16.26
2024-02-29T06:57:19.446Z,16.15
2024-02-29T06:58:19.566Z,16.05
2024-02-29T06:59:19.486Z,15.91
2024-02-29T07:00:19.513Z,15.85
2024-02-29T07:01:19.552Z,15.72
2024-02-29T07:02:19.526Z,15.73
2024-02-29T07:03:19.535Z,15.84
2024-02-29T07:04:19.744Z,16.01
2024-02-29T07:05:19.703Z,16.21
2024-02-29T07:06:19.670Z,16.45
2024-02-29T07:07:19.720Z,16.69
2024-02-29T07:08:19.744Z,16.93
2024-02-29T07:09:19.773Z,17.15
2024-02-29T07:10:19.899Z,17.38
2024-02-29T07:11:19.830Z,17.57
2024-02-29T07:12:19.924Z,17.76
2024-02-29T07:13:20.014Z,17.93
2024-02-29T07:14:19.983Z,18.07
2024-02-29T07:15:20.022Z,18.22
2024-02-29T07:16:20.047Z,18.34
2024-02-29T07:17:20.037Z,18.47
2024-02-29T07:18:20.066Z,18.57
2024-02-29T07:19:20.101Z,18.67
2024-02-29T07:20:20.130Z,18.75
2024-02-29T07:21:20.177Z,18.84
2024-02-29T07:22:20.322Z,18.92
2024-02-29T07:23:20.338Z,19.00
2024-02-29T07:24:20.383Z,19.08
2024-02-29T07:25:20.487Z,19.15
2024-02-29T07:26:20.496Z,19.21
2024-02-29T07:27:20.527Z,19.28
2024-02-29T07:28:20.639Z,19.34
2024-02-29T07:29:20.590Z,19.39
2024-02-29T07:30:20.700Z,19.45
2024-02-29T07:31:20.695Z,19.50
2024-02-29T07:32:20.703Z,19.54
2024-02-29T07:33:20.791Z,19.60
2024-02-29T07:34:20.763Z,19.64
2024-02-29T07:35:20.703Z,19.67
2024-02-29T07:36:20.745Z,19.71
2024-02-29T07:37:20.915Z,19.75
2024-02-29T07:38:20.753Z,19.80
2024-02-29T07:39:20.770Z,19.84
2024-02-29T07:40:20.926Z,19.87
2024-02-29T07:41:20.768Z,19.91
2024-02-29T07:42:20.797Z,19.95
2024-02-29T07:43:20.945Z,19.97
2024-02-29T07:44:20.866Z,20.01
2024-02-29T07:45:21.399Z,20.04
2024-02-29T07:46:21.022Z,20.06
2024-02-29T07:47:21.070Z,20.08
2024-02-29T07:48:21.161Z,20.11
2024-02-29T07:49:21.273Z,20.14
2024-02-29T07:50:21.272Z,20.17
2024-02-29T07:51:21.340Z,20.19
2024-02-29T07:52:21.552Z,20.21
2024-02-29T07:53:21.513Z,20.22
2024-02-29T07:54:21.601Z,20.21
2024-02-29T07:55:21.706Z,20.24
2024-02-29T07:56:21.732Z,20.26
2024-02-29T07:57:21.720Z,20.27
2024-02-29T07:58:21.873Z,20.31
2024-02-29T07:59:21.820Z,20.33
2024-02-29T08:00:21.882Z,20.36
2024-02-29T08:01:22.019Z,20.39
2024-02-29T08:02:24.684Z,20.40
2024-02-29T08:03:21.997Z,20.43
2024-02-29T08:04:22.048Z,20.46
2024-02-29T08:05:22.004Z,20.47
2024-02-29T08:06:21.995Z,20.48
2024-02-29T08:07:22.065Z,20.51
2024-02-29T08:08:22.009Z,20.54
2024-02-29T08:09:22.002Z,20.56
2024-02-29T08:10:22.095Z,20.59
2024-02-29T08:11:22.106Z,20.61
2024-02-29T08:12:22.003Z,20.63
2024-02-29T08:13:22.023Z,20.64
2024-02-29T08:14:22.038Z,20.65
2024-02-29T08:15:22.026Z,20.68
2024-02-29T08:16:22.021Z,20.71
2024-02-29T08:17:22.013Z,20.72
2024-02-29T08:18:22.019Z,20.74
2024-02-29T08:19:22.089Z,20.76
2024-02-29T08:20:22.034Z,20.77
2024-02-29T08:21:22.016Z,20.79
2024-02-29T08:22:22.038Z,20.81
2024-02-29T08:23:22.022Z,20.82
2024-02-29T08:24:22.060Z,20.85
2024-02-29T08:25:22.050Z,20.86
2024-02-29T08:26:22.014Z,20.89
2024-02-29T08:27:22.019Z,20.91
2024-02-29T08:28:22.099Z,20.91
2024-02-29T08:29:22.014Z,20.93
2024-02-29T08:30:22.042Z,20.94
2024-02-29T08:31:22.080Z,20.96
2024-02-29T08:32:22.060Z,20.98
2024-02-29T08:33:22.083Z,20.99
2024-02-29T08:34:22.126Z,21.00
2024-02-29T08:35:22.047Z,21.02
2024-02-29T08:36:22.039Z,21.04
2024-02-29T08:37:22.117Z,21.05
2024-02-29T08:38:22.051Z,21.07
2024-02-29T08:39:22.037Z,21.09
2024-02-29T08:40:22.137Z,21.11
2024-02-29T08:41:22.034Z,21.12
2024-02-29T08:42:22.045Z,21.14
2024-02-29T08:43:22.082Z,21.16
2024-02-29T08:44:22.053Z,21.18
2024-02-29T08:45:23.015Z,21.19
2024-02-29T08:46:22.143Z,21.20
2024-02-29T08:47:22.053Z,21.20
2024-02-29T08:48:22.063Z,21.21
2024-02-29T08:49:22.157Z,21.20
2024-02-29T08:50:22.074Z,21.20
2024-02-29T08:51:22.081Z,21.20
2024-02-29T08:52:22.107Z,21.18
2024-02-29T08:53:22.065Z,21.13
2024-02-29T08:54:22.062Z,20.97
2024-02-29T08:55:22.196Z,20.72
2024-02-29T08:56:22.068Z,20.48
2024-02-29T08:57:22.078Z,20.31
2024-02-29T08:58:22.240Z,20.18
2024-02-29T08:59:22.054Z,20.12
2024-02-29T09:00:22.084Z,20.15
2024-02-29T09:01:22.088Z,20.21
2024-02-29T09:02:22.063Z,20.26
2024-02-29T09:03:22.065Z,20.31
2024-02-29T09:04:22.101Z,20.37
2024-02-29T09:05:22.102Z,20.43
2024-02-29T09:06:22.073Z,20.49
2024-02-29T09:07:22.129Z,20.54
2024-02-29T09:08:22.966Z,20.60
2024-02-29T09:09:22.062Z,20.64
2024-02-29T09:10:22.111Z,20.67
2024-02-29T09:11:22.140Z,20.70
2024-02-29T09:12:22.098Z,20.74
2024-02-29T09:14:22.101Z,20.80
2024-02-29T09:15:22.080Z,20.83
2024-02-29T09:16:22.162Z,20.85
2024-02-29T09:17:22.097Z,20.88
2024-02-29T09:18:22.107Z,20.90
2024-02-29T09:19:22.210Z,20.92
2024-02-29T09:20:22.117Z,20.93
2024-02-29T09:21:22.081Z,20.96
2024-02-29T09:22:22.166Z,20.97
2024-02-29T09:23:22.089Z,20.99
2024-02-29T09:24:22.096Z,21.00
2024-02-29T09:25:22.233Z,21.01
2024-02-29T09:26:22.109Z,21.02
2024-02-29T09:27:22.116Z,21.04
2024-02-29T09:28:22.246Z,21.04
2024-02-29T09:29:24.142Z,21.05
2024-02-29T09:30:22.139Z,21.06
2024-02-29T09:31:22.337Z,21.08
2024-02-29T09:32:22.106Z,21.09
2024-02-29T09:33:22.099Z,21.11
2024-02-29T09:34:22.231Z,21.11
2024-02-29T09:35:22.127Z,21.12
2024-02-29T09:36:22.121Z,21.14
2024-02-29T09:37:22.130Z,21.15
2024-02-29T09:38:22.128Z,21.16
2024-02-29T09:39:22.122Z,21.17
2024-02-29T09:40:22.454Z,21.18
2024-02-29T09:41:32.728Z,21.17
2024-02-29T09:42:23.160Z,21.18
2024-02-29T09:43:22.223Z,21.18
2024-02-29T09:44:22.125Z,21.18
2024-02-29T09:45:23.746Z,21.18
2024-02-29T09:46:22.154Z,21.18
2024-02-29T09:47:22.156Z,21.17
2024-02-29T09:48:22.154Z,21.17
2024-02-29T09:49:22.200Z,21.16
2024-02-29T09:50:22.170Z,21.16
2024-02-29T09:51:22.136Z,21.17
2024-02-29T09:52:22.172Z,21.16
2024-02-29T09:53:22.147Z,21.15
2024-02-29T09:54:22.157Z,21.14
2024-02-29T09:55:22.192Z,21.13
2024-02-29T09:56:22.159Z,21.12
2024-02-29T09:57:22.201Z,21.14
2024-02-29T09:58:22.306Z,21.16
2024-02-29T09:59:22.171Z,21.18
2024-02-29T10:00:22.191Z,21.21
2024-02-29T10:01:22.257Z,21.25
2024-02-29T10:02:22.211Z,21.28
2024-02-29T10:03:22.219Z,21.33
2024-02-29T10:04:22.261Z,21.36
2024-02-29T10:05:22.181Z,21.40
2024-02-29T10:06:22.164Z,21.43
2024-02-29T10:07:22.238Z,21.47
2024-02-29T10:08:22.166Z,21.51
2024-02-29T10:09:22.178Z,21.55
2024-02-29T10:10:22.369Z,21.59
2024-02-29T10:11:22.291Z,21.62
2024-02-29T10:12:22.228Z,21.65
2024-02-29T10:13:22.333Z,21.69
2024-02-29T10:14:22.230Z,21.72
2024-02-29T10:15:22.179Z,21.75
2024-02-29T10:16:22.745Z,21.78
2024-02-29T10:17:22.194Z,21.81
2024-02-29T10:18:22.251Z,21.83
2024-02-29T10:19:22.304Z,21.85
2024-02-29T10:20:22.208Z,21.88
2024-02-29T10:21:22.193Z,21.92
2024-02-29T10:22:22.259Z,21.93
2024-02-29T10:23:22.188Z,21.94
2024-02-29T10:24:22.198Z,21.97
2024-02-29T10:25:22.340Z,21.98
2024-02-29T10:26:22.203Z,22.01
2024-02-29T10:27:22.186Z,22.03
2024-02-29T10:28:22.259Z,22.05
2024-02-29T10:29:23.858Z,22.06
2024-02-29T10:30:22.208Z,22.07
2024-02-29T10:31:22.251Z,22.08
2024-02-29T10:32:22.241Z,22.08
2024-02-29T10:33:22.264Z,22.10
2024-02-29T10:34:22.399Z,22.11
2024-02-29T10:35:22.221Z,22.11
2024-02-29T10:36:22.212Z,22.12
2024-02-29T10:37:22.323Z,22.12
2024-02-29T10:38:22.250Z,22.13
2024-02-29T10:39:22.226Z,22.14
2024-02-29T10:40:22.347Z,22.14
2024-02-29T10:41:22.222Z,22.15
2024-02-29T10:42:22.243Z,22.14
2024-02-29T10:43:22.330Z,22.15
2024-02-29T10:44:22.230Z,22.16
2024-02-29T10:45:25.053Z,22.16
2024-02-29T10:46:22.344Z,22.13
2024-02-29T10:47:22.236Z,22.04
2024-02-29T10:48:22.243Z,21.94
2024-02-29T10:49:22.307Z,21.90
2024-02-29T10:50:22.243Z,21.89
2024-02-29T10:51:24.516Z,21.87
2024-02-29T10:52:22.285Z,21.87
2024-02-29T10:53:22.244Z,21.87
2024-02-29T10:54:22.273Z,21.88
2024-02-29T10:55:22.354Z,21.89
2024-02-29T10:56:22.273Z,21.90
2024-02-29T10:57:22.242Z,21.92
2024-02-29T10:58:22.336Z,21.94
2024-02-29T10:59:22.272Z,21.96
2024-02-29T11:00:22.258Z,21.98
2024-02-29T11:01:22.375Z,22.00
2024-02-29T11:02:22.257Z,22.00
2024-02-29T11:03:22.259Z,22.02
2024-02-29T11:04:22.292Z,22.04
2024-02-29T11:05:22.263Z,22.04
2024-02-29T11:06:22.244Z,22.05
2024-02-29T11:07:22.360Z,22.06
2024-02-29T11:08:22.252Z,22.08
2024-02-29T11:09:25.538Z,22.08
2024-02-29T11:10:23.398Z,22.09
2024-02-29T11:11:22.336Z,22.09
2024-02-29T11:12:22.262Z,22.11
2024-02-29T11:13:22.383Z,22.12
2024-02-29T11:14:22.301Z,22.12
2024-02-29T11:15:23.489Z,22.13
2024-02-29T11:16:22.307Z,22.14
2024-02-29T11:17:22.274Z,22.14
2024-02-29T11:18:22.268Z,22.16
2024-02-29T11:19:22.349Z,22.18
2024-02-29T11:20:22.330Z,22.18
2024-02-29T11:21:22.276Z,22.19
2024-02-29T11:22:22.350Z,22.19
2024-02-29T11:23:22.281Z,22.20
2024-02-29T11:24:22.393Z,22.21
2024-02-29T11:25:22.518Z,22.22
2024-02-29T11:26:22.316Z,22.22
2024-02-29T11:27:22.341Z,22.23
2024-02-29T11:28:22.412Z,22.24
2024-02-29T11:29:22.394Z,22.25
2024-02-29T11:30:22.658Z,22.26
2024-02-29T11:31:22.518Z,22.28
2024-02-29T11:32:22.468Z,22.28
2024-02-29T11:33:22.595Z,22.28
2024-02-29T11:34:22.662Z,22.29
2024-02-29T11:35:22.622Z,22.30
2024-02-29T11:36:22.575Z,22.31
2024-02-29T11:37:24.884Z,22.31
2024-02-29T11:38:29.147Z,22.31
2024-02-29T11:39:23.626Z,22.32
2024-02-29T11:40:22.680Z,22.33
2024-02-29T11:41:22.620Z,22.35
2024-02-29T11:42:22.607Z,22.37
2024-02-29T11:43:24.881Z,22.37
2024-02-29T11:44:22.606Z,22.31
2024-02-29T11:45:22.813Z,22.25
2024-02-29T11:46:22.670Z,22.17
2024-02-29T11:47:22.618Z,22.09
2024-02-29T11:48:22.623Z,22.01
2024-02-29T11:49:22.737Z,21.95
2024-02-29T11:50:22.616Z,21.89
2024-02-29T11:51:22.646Z,21.82
2024-02-29T11:52:22.657Z,21.76
2024-02-29T11:53:22.624Z,21.72
2024-02-29T11:54:24.191Z,21.67
2024-02-29T11:55:22.805Z,21.62
2024-02-29T11:56:22.638Z,21.59
2024-02-29T11:57:22.651Z,21.54
2024-02-29T11:58:22.673Z,21.51
2024-02-29T11:59:22.729Z,21.48
2024-02-29T12:00:22.621Z,21.45
2024-02-29T12:01:22.677Z,21.42
2024-02-29T12:02:22.643Z,21.40
2024-02-29T12:03:23.668Z,21.39
2024-02-29T12:04:22.824Z,21.39
2024-02-29T12:05:22.685Z,21.44
2024-02-29T12:06:22.625Z,21.49
2024-02-29T12:07:22.698Z,21.54
2024-02-29T12:08:22.694Z,21.59
2024-02-29T12:09:22.640Z,21.63
2024-02-29T12:10:22.768Z,21.66
2024-02-29T12:11:22.690Z,21.71
2024-02-29T12:12:22.645Z,21.73
2024-02-29T12:13:22.713Z,21.76
2024-02-29T12:14:22.648Z,21.79
2024-02-29T12:15:22.683Z,21.81
2024-02-29T12:16:22.703Z,21.83
2024-02-29T12:17:22.664Z,21.84
2024-02-29T12:18:22.681Z,21.85
2024-02-29T12:19:22.735Z,21.87
2024-02-29T12:20:22.654Z,21.89
2024-02-29T12:21:28.639Z,21.90
2024-02-29T12:22:23.779Z,21.90
2024-02-29T12:23:22.672Z,21.92
2024-02-29T12:24:22.681Z,21.92
2024-02-29T12:25:22.779Z,21.93
2024-02-29T12:26:22.694Z,21.93
2024-02-29T12:27:22.699Z,21.94
2024-02-29T12:28:22.720Z,21.95
2024-02-29T12:29:22.679Z,21.95
2024-02-29T12:30:22.686Z,21.95
2024-02-29T12:31:22.959Z,21.96
2024-02-29T12:32:22.695Z,21.96
2024-02-29T12:33:26.425Z,21.97
2024-02-29T12:34:23.803Z,21.96
2024-02-29T12:35:22.770Z,21.97
2024-02-29T12:36:22.818Z,21.96
2024-02-29T12:37:22.829Z,21.96
2024-02-29T12:38:22.846Z,21.95
2024-02-29T12:39:22.778Z,21.94
2024-02-29T12:40:22.909Z,21.91
2024-02-29T12:41:22.781Z,21.89
2024-02-29T12:42:22.763Z,21.86
2024-02-29T12:43:22.950Z,21.85
2024-02-29T12:44:22.815Z,21.84
2024-02-29T12:45:22.923Z,21.83
2024-02-29T12:46:23.097Z,21.81
2024-02-29T12:47:23.034Z,21.80
2024-02-29T12:48:23.097Z,21.78
2024-02-29T12:49:23.225Z,21.77
2024-02-29T12:50:23.245Z,21.75
2024-02-29T12:51:23.347Z,21.74
2024-02-29T12:52:23.395Z,21.72
2024-02-29T12:53:23.456Z,21.70
2024-02-29T12:54:23.766Z,21.68